createdAt,value
2022-11-05T00:01:41.276Z,3.83
2022-11-05T00:04:30.915Z,5.50
2022-11-05T00:07:21.038Z,4.25
2022-11-05T00:09:49.559Z,4.60
2022-11-05T00:12:34.888Z,4.30
2022-11-05T00:15:20.382Z,3.58
2022-11-05T00:17:48.074Z,4.57
2022-11-05T00:20:17.187Z,4.93
2022-11-05T00:23:02.270Z,2.73
2022-11-05T00:25:30.352Z,4.68
2022-11-05T00:28:02.166Z,4.93
2022-11-05T00:30:31.038Z,3.83
2022-11-05T00:33:03.552Z,5.72
2022-11-05T00:35:32.626Z,3.80
2022-11-05T00:38:00.380Z,3.22
2022-11-05T00:40:28.105Z,3.63
2022-11-05T00:43:27.699Z,3.10
2022-11-05T00:45:55.404Z,5.43
2022-11-05T00:48:40.819Z,3.70
2022-11-05T00:51:10.228Z,3.30
2022-11-05T00:53:38.089Z,5.03
2022-11-05T00:56:05.981Z,3.65
2022-11-05T00:58:33.675Z,7.80
2022-11-05T01:01:02.635Z,3.00
2022-11-05T01:03:32.036Z,5.45
2022-11-05T01:06:06.488Z,4.65
2022-11-05T01:08:35.546Z,4.78
2022-11-05T01:11:09.822Z,5.28
2022-11-05T01:13:37.874Z,4.77
2022-11-05T01:16:08.112Z,3.55
2022-11-05T01:18:38.292Z,6.28
2022-11-05T01:21:13.493Z,3.95
2022-11-05T01:23:42.658Z,3.63
2022-11-05T01:26:10.412Z,3.23
2022-11-05T01:28:38.221Z,3.15
2022-11-05T01:31:06.381Z,7.18
2022-11-05T01:33:34.033Z,2.88
2022-11-05T01:36:01.728Z,4.13
2022-11-05T01:38:29.426Z,3.53
2022-11-05T01:40:58.427Z,3.28
2022-11-05T01:43:26.177Z,2.58
2022-11-05T01:45:58.381Z,3.60
2022-11-05T01:48:32.466Z,4.15
2022-11-05T01:51:02.309Z,3.53
2022-11-05T01:53:34.405Z,6.70
2022-11-05T01:56:06.519Z,4.35
2022-11-05T01:58:40.096Z,3.55
2022-11-05T02:01:07.784Z,4.25
2022-11-05T02:03:36.074Z,5.13
2022-11-05T02:06:04.358Z,3.60
2022-11-05T02:08:47.290Z,6.57
2022-11-05T02:11:19.322Z,3.63
2022-11-05T02:13:48.249Z,8.35
2022-11-05T02:16:26.558Z,3.00
2022-11-05T02:19:03.117Z,3.55
2022-11-05T02:21:58.928Z,5.80
2022-11-05T02:24:54.824Z,5.72
2022-11-05T02:27:37.960Z,2.97
2022-11-05T02:30:26.043Z,4.33
2022-11-05T02:33:12.106Z,2.72
2022-11-05T02:36:03.178Z,2.97
2022-11-05T02:38:41.569Z,3.75
2022-11-05T02:41:19.579Z,3.42
2022-11-05T02:43:53.879Z,4.17
2022-11-05T02:46:34.823Z,4.97
2022-11-05T02:49:09.878Z,3.78
2022-11-05T02:51:46.167Z,5.75
2022-11-05T02:54:18.959Z,4.88
2022-11-05T02:56:51.109Z,3.97
2022-11-05T02:59:18.753Z,7.78
2022-11-05T03:01:49.080Z,3.65
2022-11-05T03:04:20.557Z,6.30
2022-11-05T03:07:20.550Z,2.65
2022-11-05T03:10:01.046Z,5.70
2022-11-05T03:12:35.876Z,3.38
2022-11-05T03:15:15.954Z,8.43
2022-11-05T03:17:54.572Z,4.18
2022-11-05T03:20:26.988Z,8.05
2022-11-05T03:23:02.136Z,2.20
2022-11-05T03:25:31.428Z,2.22
2022-11-05T03:28:04.680Z,4.25
2022-11-05T03:30:35.861Z,3.17
2022-11-05T03:33:10.181Z,4.57
2022-11-05T03:35:44.510Z,5.30
2022-11-05T03:38:18.018Z,3.60
2022-11-05T03:40:48.714Z,2.17
2022-11-05T03:43:19.145Z,3.55
2022-11-05T03:45:52.340Z,3.80
2022-11-05T03:48:25.334Z,2.55
2022-11-05T03:51:01.564Z,5.88
2022-11-05T03:53:32.632Z,3.88
2022-11-05T03:56:04.181Z,7.53
2022-11-05T03:58:32.719Z,4.13
2022-11-05T04:01:01.994Z,7.00
2022-11-05T04:03:36.184Z,7.90
2022-11-05T04:06:22.474Z,2.60
2022-11-05T04:09:07.944Z,8.82
2022-11-05T04:11:53.633Z,3.40
2022-11-05T04:14:21.334Z,4.07
2022-11-05T04:17:06.530Z,6.35
2022-11-05T04:19:54.079Z,3.50
2022-11-05T04:22:39.367Z,4.68
2022-11-05T04:25:07.620Z,2.95
2022-11-05T04:27:35.728Z,3.97
2022-11-05T04:30:21.611Z,6.22
2022-11-05T04:33:04.199Z,4.25
2022-11-05T04:35:36.336Z,2.65
2022-11-05T04:38:04.941Z,4.72
2022-11-05T04:40:32.702Z,4.43
2022-11-05T04:43:00.522Z,6.38
2022-11-05T04:45:29.910Z,5.32
2022-11-05T04:47:57.741Z,5.05
2022-11-05T04:50:25.687Z,3.35
2022-11-05T04:52:54.874Z,6.07
2022-11-05T04:55:23.712Z,2.80
2022-11-05T04:57:52.628Z,2.35
2022-11-05T05:00:21.750Z,7.05
2022-11-05T05:02:50.119Z,4.65
2022-11-05T05:05:18.103Z,4.22
2022-11-05T05:07:45.788Z,4.15
2022-11-05T05:10:14.900Z,3.38
2022-11-05T05:12:42.593Z,4.57
2022-11-05T05:15:10.327Z,2.38
2022-11-05T05:17:37.999Z,3.28
2022-11-05T05:20:23.739Z,2.95
2022-11-05T05:22:55.142Z,6.32
2022-11-05T05:25:24.340Z,2.95
2022-11-05T05:27:52.330Z,4.13
2022-11-05T05:30:19.992Z,2.47
2022-11-05T05:32:47.703Z,2.53
2022-11-05T05:35:15.568Z,3.20
2022-11-05T05:37:43.398Z,4.28
2022-11-05T05:40:12.319Z,5.75
2022-11-05T05:42:43.350Z,5.57
2022-11-05T05:45:12.645Z,4.18
2022-11-05T05:47:40.372Z,3.50
2022-11-05T05:50:08.389Z,3.97
2022-11-05T05:52:36.088Z,5.95
2022-11-05T05:55:03.858Z,2.97
2022-11-05T05:57:31.599Z,4.40
2022-11-05T06:00:01.890Z,10.38
2022-11-05T06:02:31.428Z,6.03
2022-11-05T06:05:01.660Z,4.68
2022-11-05T06:07:34.447Z,2.60
2022-11-05T06:10:10.799Z,5.70
2022-11-05T06:12:38.551Z,2.72
2022-11-05T06:15:08.727Z,6.35
2022-11-05T06:17:36.396Z,5.43
2022-11-05T06:20:04.300Z,4.37
2022-11-05T06:22:31.984Z,3.70
2022-11-05T06:25:02.558Z,3.83
2022-11-05T06:27:30.351Z,3.33
2022-11-05T06:29:58.060Z,5.03
2022-11-05T06:32:27.237Z,5.97
2022-11-05T06:34:54.922Z,2.88
2022-11-05T06:37:22.693Z,7.15
2022-11-05T06:39:50.503Z,4.00
2022-11-05T06:42:19.223Z,6.95
2022-11-05T06:44:47.430Z,5.93
2022-11-05T06:47:15.150Z,4.13
2022-11-05T06:49:44.230Z,4.68
2022-11-05T06:52:11.925Z,3.60
2022-11-05T06:54:40.066Z,3.42
2022-11-05T06:57:09.583Z,4.50
2022-11-05T06:59:37.554Z,5.70
2022-11-05T07:02:05.679Z,3.95
2022-11-05T07:04:33.588Z,5.90
2022-11-05T07:07:02.662Z,4.75
2022-11-05T07:09:30.406Z,2.58
2022-11-05T07:11:58.217Z,3.58
2022-11-05T07:14:25.943Z,4.78
2022-11-05T07:16:53.655Z,3.47
2022-11-05T07:19:22.093Z,4.97
2022-11-05T07:21:50.896Z,4.80
2022-11-05T07:24:19.988Z,3.20
2022-11-05T07:26:47.704Z,4.90
2022-11-05T07:29:15.442Z,5.20
2022-11-05T07:31:43.157Z,2.90
2022-11-05T07:34:10.861Z,4.70
2022-11-05T07:36:39.426Z,5.18
2022-11-05T07:39:07.363Z,6.47
2022-11-05T07:41:36.439Z,4.88
2022-11-05T07:44:04.487Z,4.40
2022-11-05T07:46:32.272Z,5.00
2022-11-05T07:48:59.956Z,3.92
2022-11-05T07:51:27.630Z,4.25
2022-11-05T07:53:55.411Z,5.45
2022-11-05T07:56:23.358Z,3.55
2022-11-05T07:58:52.478Z,3.97
2022-11-05T08:01:20.358Z,3.58
2022-11-05T08:03:48.239Z,2.78
2022-11-05T08:06:16.029Z,4.53
2022-11-05T08:08:43.739Z,6.35
2022-11-05T08:11:12.624Z,4.67
2022-11-05T08:13:42.618Z,6.57
2022-11-05T08:16:11.819Z,6.85
2022-11-05T08:18:39.507Z,5.10
2022-11-05T08:21:08.880Z,6.40
2022-11-05T08:23:36.812Z,5.20
2022-11-05T08:26:05.222Z,5.45
2022-11-05T08:28:33.182Z,4.78
2022-11-05T08:31:01.015Z,4.45
2022-11-05T08:33:31.465Z,4.88
2022-11-05T08:36:03.053Z,3.90
2022-11-05T08:38:30.901Z,3.65
2022-11-05T08:40:59.257Z,4.03
2022-11-05T08:43:27.092Z,5.43
2022-11-05T08:45:55.314Z,4.30
2022-11-05T08:48:23.097Z,7.20
2022-11-05T08:50:52.165Z,4.30
2022-11-05T08:53:19.848Z,4.40
2022-11-05T08:55:50.113Z,6.13
2022-11-05T08:58:18.243Z,5.07
2022-11-05T09:00:47.784Z,4.40
2022-11-05T09:03:16.124Z,4.10
2022-11-05T09:05:44.199Z,4.57
2022-11-05T09:08:16.023Z,4.90
2022-11-05T09:10:44.752Z,4.82
2022-11-05T09:13:18.236Z,4.43
2022-11-05T09:15:47.887Z,3.38
2022-11-05T09:18:15.969Z,3.40
2022-11-05T09:20:44.136Z,4.65
2022-11-05T09:23:14.880Z,4.55
2022-11-05T09:25:43.125Z,4.23
2022-11-05T09:28:16.568Z,5.53
2022-11-05T09:30:47.217Z,4.05
2022-11-05T09:33:15.851Z,6.72
2022-11-05T09:35:43.973Z,4.13
2022-11-05T09:38:13.073Z,3.30
2022-11-05T09:40:45.323Z,4.30
2022-11-05T09:43:19.321Z,5.00
2022-11-05T09:45:51.089Z,3.38
2022-11-05T09:48:23.720Z,4.60
2022-11-05T09:50:54.713Z,4.53
2022-11-05T09:53:25.282Z,4.47
2022-11-05T09:55:55.378Z,4.00
2022-11-05T09:58:32.464Z,5.20
2022-11-05T10:01:00.860Z,4.53
2022-11-05T10:03:31.025Z,4.07
2022-11-05T10:06:08.328Z,5.45
2022-11-05T10:08:42.692Z,4.25
2022-11-05T10:11:16.845Z,4.70
2022-11-05T10:13:48.352Z,4.00
2022-11-05T10:16:24.367Z,3.87
2022-11-05T10:18:55.871Z,6.13
2022-11-05T10:21:44.198Z,4.45
2022-11-05T10:24:16.847Z,3.45
2022-11-05T10:26:47.548Z,3.55
2022-11-05T10:29:18.943Z,2.97
2022-11-05T10:31:46.814Z,3.22
2022-11-05T10:34:17.793Z,5.80
2022-11-05T10:36:45.735Z,4.10
2022-11-05T10:39:17.653Z,2.92
2022-11-05T10:41:57.630Z,3.20
2022-11-05T10:44:36.045Z,3.72
2022-11-05T10:47:25.633Z,3.30
2022-11-05T10:49:59.507Z,3.05
2022-11-05T10:52:32.927Z,3.30
2022-11-05T10:55:03.852Z,4.73
2022-11-05T10:57:37.052Z,3.40
2022-11-05T11:00:26.471Z,3.00
2022-11-05T11:02:57.457Z,4.60
2022-11-05T11:05:29.733Z,18.08
2022-11-05T11:08:03.295Z,14.07
2022-11-05T11:10:37.883Z,7.75
2022-11-05T11:13:06.450Z,3.58
2022-11-05T11:15:35.171Z,2.85
2022-11-05T11:18:26.965Z,4.57
2022-11-05T11:20:54.827Z,2.93
2022-11-05T11:23:22.741Z,2.90
2022-11-05T11:26:00.592Z,2.63
2022-11-05T11:28:34.591Z,3.33
2022-11-05T11:31:06.817Z,2.92
2022-11-05T11:33:36.008Z,7.33
2022-11-05T11:36:04.331Z,2.92
2022-11-05T11:38:34.592Z,3.47
2022-11-05T11:41:16.387Z,2.80
2022-11-05T11:43:45.058Z,3.40
2022-11-05T11:46:16.125Z,3.17
2022-11-05T11:48:47.536Z,3.97
2022-11-05T11:51:34.265Z,3.63
2022-11-05T11:54:03.182Z,3.25
2022-11-05T11:56:44.727Z,3.35
2022-11-05T11:59:40.504Z,3.30
2022-11-05T12:02:35.227Z,2.90
2022-11-05T12:05:18.390Z,5.45
2022-11-05T12:07:52.789Z,2.60
2022-11-05T12:10:35.144Z,3.05
2022-11-05T12:13:24.426Z,3.27
2022-11-05T12:15:55.152Z,2.53
2022-11-05T12:18:33.846Z,3.60
2022-11-05T12:21:08.316Z,3.97
2022-11-05T12:24:11.543Z,3.75
2022-11-05T12:26:51.578Z,3.63
2022-11-05T12:29:35.975Z,3.05
2022-11-05T12:32:31.424Z,2.92
2022-11-05T12:35:10.681Z,4.00
2022-11-05T12:37:59.840Z,3.13
2022-11-05T12:40:44.173Z,4.13
2022-11-05T12:43:19.413Z,5.38
2022-11-05T12:45:56.642Z,4.10
2022-11-05T12:48:40.730Z,3.65
2022-11-05T12:51:20.954Z,3.63
2022-11-05T12:54:03.585Z,4.17
2022-11-05T12:56:35.369Z,16.63
2022-11-05T12:59:11.942Z,7.22
2022-11-05T13:01:47.215Z,5.53
2022-11-05T13:04:22.163Z,4.57
2022-11-05T13:06:56.095Z,4.13
2022-11-05T13:09:27.633Z,4.35
2022-11-05T13:11:58.752Z,3.20
2022-11-05T13:14:30.252Z,2.88
2022-11-05T13:17:03.420Z,3.72
2022-11-05T13:19:34.498Z,4.07
2022-11-05T13:22:09.796Z,3.10
2022-11-05T13:24:41.412Z,5.03
2022-11-05T13:27:27.615Z,3.45
2022-11-05T13:30:00.722Z,5.88
2022-11-05T13:32:34.082Z,3.90
2022-11-05T13:35:04.039Z,3.72
2022-11-05T13:37:53.018Z,3.42
2022-11-05T13:40:25.638Z,3.97
2022-11-05T13:43:17.219Z,2.90
2022-11-05T13:46:18.055Z,4.27
2022-11-05T13:49:05.129Z,4.25
2022-11-05T13:51:52.514Z,5.10
2022-11-05T13:54:43.651Z,3.85
2022-11-05T13:57:46.669Z,3.33
2022-11-05T14:00:19.384Z,4.53
2022-11-05T14:02:51.076Z,3.08
2022-11-05T14:05:27.458Z,3.00
2022-11-05T14:07:56.586Z,3.28
2022-11-05T14:10:34.647Z,3.08
2022-11-05T14:13:20.946Z,3.30
2022-11-05T14:16:03.852Z,6.90
2022-11-05T14:18:43.905Z,3.25
2022-11-05T14:21:32.333Z,3.88
2022-11-05T14:24:19.382Z,2.80
2022-11-05T14:27:26.084Z,3.80
2022-11-05T14:29:53.800Z,3.80
2022-11-05T14:32:50.386Z,3.50
2022-11-05T14:35:38.960Z,3.58
2022-11-05T14:38:21.051Z,2.47
2022-11-05T14:40:50.448Z,3.07
2022-11-05T14:43:22.693Z,3.85
2022-11-05T14:45:55.966Z,5.60
2022-11-05T14:48:37.525Z,5.45
2022-11-05T14:51:23.823Z,5.32
2022-11-05T14:54:02.148Z,5.57
2022-11-05T14:56:30.563Z,3.85
2022-11-05T14:59:31.992Z,3.67
2022-11-05T15:02:04.614Z,3.53
2022-11-05T15:04:33.808Z,4.15
2022-11-05T15:07:25.988Z,4.60
2022-11-05T15:10:08.905Z,3.67
2022-11-05T15:12:42.661Z,4.72
2022-11-05T15:15:25.542Z,4.35
2022-11-05T15:18:02.786Z,2.97
2022-11-05T15:20:39.925Z,3.47
2022-11-05T15:23:16.847Z,3.47
2022-11-05T15:26:04.654Z,3.83
2022-11-05T15:28:38.318Z,3.40
2022-11-05T15:31:20.531Z,3.80
2022-11-05T15:33:48.886Z,4.60
2022-11-05T15:36:26.101Z,4.07
2022-11-05T15:39:22.921Z,5.47
2022-11-05T15:41:44.200Z,3.65
2022-11-05T15:44:27.091Z,4.13
2022-11-05T15:47:15.432Z,4.33
2022-11-05T15:49:44.786Z,4.13
2022-11-05T15:52:17.554Z,3.97
2022-11-05T15:54:45.622Z,5.00
2022-11-05T15:57:27.438Z,4.15
2022-11-05T15:59:55.317Z,4.20
2022-11-05T16:02:30.728Z,2.88
2022-11-05T16:04:59.963Z,3.10
2022-11-05T16:07:29.225Z,4.20
2022-11-05T16:10:08.582Z,2.95
2022-11-05T16:12:40.837Z,6.10
2022-11-05T16:15:26.465Z,4.25
2022-11-05T16:17:56.409Z,5.20
2022-11-05T16:20:28.440Z,4.10
2022-11-05T16:22:58.313Z,5.93
2022-11-05T16:25:38.308Z,8.03
2022-11-05T16:28:20.197Z,5.55
2022-11-05T16:30:56.412Z,5.72
2022-11-05T16:33:28.336Z,5.75
2022-11-05T16:35:56.043Z,4.38
2022-11-05T16:38:37.334Z,6.03
2022-11-05T16:41:05.230Z,4.95
2022-11-05T16:43:34.631Z,6.05
2022-11-05T16:46:02.492Z,5.60
2022-11-05T16:48:30.188Z,13.60
2022-11-05T16:50:57.970Z,4.47
2022-11-05T16:53:25.720Z,11.80
2022-11-05T16:55:53.574Z,6.38
2022-11-05T16:58:24.800Z,5.18
2022-11-05T17:00:58.618Z,6.88
2022-11-05T17:03:26.382Z,33.33
2022-11-05T17:05:54.458Z,59.58
2022-11-05T17:08:22.205Z,12.30
2022-11-05T17:10:49.987Z,7.78
2022-11-05T17:13:19.607Z,5.95
2022-11-05T17:15:49.381Z,6.70
2022-11-05T17:18:19.570Z,8.88
2022-11-05T17:20:49.031Z,6.93
2022-11-05T17:23:19.697Z,5.50
2022-11-05T17:25:50.219Z,7.30
2022-11-05T17:28:18.555Z,7.50
2022-11-05T17:30:52.303Z,7.45
2022-11-05T17:33:23.718Z,5.90
2022-11-05T17:35:52.456Z,5.82
2022-11-05T17:38:21.123Z,6.13
2022-11-05T17:40:49.245Z,9.17
2022-11-05T17:43:16.937Z,6.32
2022-11-05T17:45:46.929Z,7.22
2022-11-05T17:48:15.216Z,5.72
2022-11-05T17:50:46.045Z,5.78
2022-11-05T17:53:15.132Z,6.93
2022-11-05T17:55:43.727Z,5.22
2022-11-05T17:58:11.856Z,4.70
2022-11-05T18:00:40.253Z,5.30
2022-11-05T18:03:08.110Z,5.05
2022-11-05T18:05:36.345Z,3.77
2022-11-05T18:08:06.087Z,5.03
2022-11-05T18:10:34.530Z,4.43
2022-11-05T18:13:02.211Z,3.67
2022-11-05T18:15:29.929Z,4.68
2022-11-05T18:17:57.712Z,3.47
2022-11-05T18:20:25.415Z,3.40
2022-11-05T18:22:57.511Z,4.82
2022-11-05T18:25:26.616Z,3.67
2022-11-05T18:27:54.319Z,5.68
2022-11-05T18:30:22.045Z,5.17
2022-11-05T18:32:51.099Z,4.55
2022-11-05T18:35:19.105Z,4.35
2022-11-05T18:37:46.957Z,4.43
2022-11-05T18:40:14.674Z,4.00
2022-11-05T18:42:43.783Z,4.50
2022-11-05T18:45:12.535Z,5.22
2022-11-05T18:47:40.492Z,6.22
2022-11-05T18:50:10.471Z,5.78
2022-11-05T18:52:38.392Z,5.75
2022-11-05T18:55:11.119Z,6.57
2022-11-05T18:57:39.212Z,5.63
2022-11-05T19:00:09.921Z,4.82
2022-11-05T19:02:37.847Z,6.10
2022-11-05T19:05:28.076Z,5.47
2022-11-05T19:07:53.900Z,5.50
2022-11-05T19:10:21.586Z,5.18
2022-11-05T19:12:49.344Z,4.78
2022-11-05T19:15:18.586Z,7.80
2022-11-05T19:17:46.482Z,7.32
2022-11-05T19:20:14.789Z,4.70
2022-11-05T19:22:42.537Z,8.00
2022-11-05T19:25:10.398Z,6.03
2022-11-05T19:27:38.697Z,8.50
2022-11-05T19:30:13.691Z,8.32
2022-11-05T19:32:42.827Z,7.93
2022-11-05T19:35:10.621Z,6.90
2022-11-05T19:37:38.353Z,7.90
2022-11-05T19:40:07.331Z,7.28
2022-11-05T19:42:35.045Z,7.05
2022-11-05T19:45:23.071Z,9.67
2022-11-05T19:47:52.091Z,11.77
2022-11-05T19:50:19.777Z,8.73
2022-11-05T19:52:47.464Z,10.38
2022-11-05T19:55:15.151Z,9.65
2022-11-05T19:57:43.097Z,9.07
2022-11-05T20:00:12.147Z,9.23
2022-11-05T20:02:40.006Z,7.45
2022-11-05T20:05:09.644Z,12.48
2022-11-05T20:07:37.337Z,10.20
2022-11-05T20:10:05.698Z,10.90
2022-11-05T20:12:34.410Z,8.98
2022-11-05T20:15:02.130Z,11.80
2022-11-05T20:17:29.867Z,12.30
2022-11-05T20:19:57.676Z,10.77
2022-11-05T20:22:26.753Z,12.53
2022-11-05T20:24:54.420Z,11.30
2022-11-05T20:27:22.136Z,10.88
2022-11-05T20:29:50.997Z,11.40
2022-11-05T20:32:18.757Z,9.35
2022-11-05T20:34:46.483Z,10.67
2022-11-05T20:37:14.147Z,10.40
2022-11-05T20:39:43.262Z,10.52
2022-11-05T20:42:11.023Z,11.23
2022-11-05T20:44:38.752Z,12.05
2022-11-05T20:47:07.195Z,10.53
2022-11-05T20:49:34.968Z,9.40
2022-11-05T20:52:02.684Z,10.15
2022-11-05T20:54:30.357Z,12.95
2022-11-05T20:56:59.475Z,13.23
2022-11-05T20:59:27.337Z,10.10
2022-11-05T21:01:55.122Z,12.57
2022-11-05T21:04:22.933Z,12.45
2022-11-05T21:06:50.703Z,10.70
2022-11-05T21:09:18.731Z,11.57
2022-11-05T21:12:03.855Z,9.83
2022-11-05T21:14:34.872Z,12.40
2022-11-05T21:17:02.921Z,15.82
2022-11-05T21:19:32.440Z,12.18
2022-11-05T21:22:00.150Z,9.60
2022-11-05T21:24:27.970Z,10.37
2022-11-05T21:26:55.985Z,8.60
2022-11-05T21:29:23.687Z,10.18
2022-11-05T21:31:53.090Z,13.65
2022-11-05T21:34:21.381Z,11.23
2022-11-05T21:36:50.341Z,9.93
2022-11-05T21:39:18.593Z,13.18
2022-11-05T21:41:58.670Z,12.25
2022-11-05T21:44:26.372Z,12.80
2022-11-05T21:46:58.872Z,10.35
2022-11-05T21:49:26.779Z,8.17
2022-11-05T21:52:12.211Z,11.15
2022-11-05T21:54:57.740Z,10.52
2022-11-05T21:57:43.016Z,9.10
2022-11-05T22:00:12.725Z,14.10
2022-11-05T22:02:41.900Z,8.33
2022-11-05T22:05:10.117Z,14.35
2022-11-05T22:07:39.718Z,8.98
2022-11-05T22:10:14.848Z,10.55
2022-11-05T22:12:44.675Z,12.15
2022-11-05T22:15:12.792Z,9.33
2022-11-05T22:17:46.533Z,11.20
2022-11-05T22:20:15.425Z,9.18
2022-11-05T22:22:43.221Z,10.35
2022-11-05T22:25:11.007Z,8.90
2022-11-05T22:27:38.773Z,12.10
2022-11-05T22:30:07.670Z,15.40
2022-11-05T22:32:35.345Z,8.88
2022-11-05T22:35:04.652Z,10.82
2022-11-05T22:37:32.483Z,12.45
2022-11-05T22:40:00.220Z,10.93
2022-11-05T22:42:27.930Z,11.07
2022-11-05T22:44:55.719Z,11.55
2022-11-05T22:47:23.393Z,10.27
2022-11-05T22:49:51.119Z,8.98
2022-11-05T22:52:20.169Z,9.20
2022-11-05T22:54:48.388Z,12.40
2022-11-05T22:57:16.261Z,11.15
2022-11-05T22:59:43.935Z,11.95
2022-11-05T23:02:11.764Z,11.10
2022-11-05T23:04:39.774Z,10.07
2022-11-05T23:07:27.788Z,10.10
2022-11-05T23:10:14.784Z,11.45
2022-11-05T23:12:44.579Z,8.13
2022-11-05T23:15:34.364Z,8.50
2022-11-05T23:18:19.683Z,11.20
2022-11-05T23:21:04.833Z,9.77
2022-11-05T23:23:50.328Z,10.10
2022-11-05T23:26:36.965Z,9.45
2022-11-05T23:29:05.052Z,10.73
2022-11-05T23:31:50.399Z,9.43
2022-11-05T23:34:18.148Z,10.48
2022-11-05T23:37:03.927Z,10.70
2022-11-05T23:39:31.662Z,9.48
2022-11-05T23:42:18.037Z,10.73
2022-11-05T23:45:03.693Z,10.60
2022-11-05T23:47:48.896Z,8.82
2022-11-05T23:50:16.765Z,13.40
2022-11-05T23:52:44.461Z,9.20
2022-11-05T23:55:12.144Z,8.98
2022-11-05T23:57:41.485Z,8.70
